QFA1474 YMML-VIDP
Flight info
| Callsign | QFA1474 |
|---|---|
| Flight time | N/A |
| Altitude | 34000 |
| Route | ML6/34 NEVIS H345 AD A585 PINAV DCT BIDAP A585 SAPDA/N0500F360 L896 PAKRA/N0493F380 L896 MMV Q24 BAVOX BAVOX6H |
| Aircraft | A35K/H-SDE2E3GHIJ3J4J5LM1ORWXY/LB1D1 |
Departure
| Time | 2026-05-04 09:49 |
|---|---|
| Airport | Melbourne Airport (YMML) |
Arrival
| Time | N/A |
|---|---|
| Airport | Indira Gandhi International Airport (VIDP) |
| Time | Latitude | Longitude | Altitude | Speed | Heading |
|---|---|---|---|---|---|
| 2026-05-04 08:54 | -37.66922 | 144.84511 | 397 ft | 0 kts | 11° |
| 2026-05-04 09:26 | -37.66933 | 144.84508 | 397 ft | 1 kts | 8° |
| 2026-05-04 09:26 | -37.66944 | 144.84506 | 396 ft | 1 kts | 8° |
| 2026-05-04 09:26 | -37.66954 | 144.84504 | 393 ft | 0 kts | 5° |
| 2026-05-04 09:27 | -37.66968 | 144.84502 | 394 ft | 2 kts | 4° |
| 2026-05-04 09:27 | -37.66985 | 144.84502 | 393 ft | 2 kts | 356° |
| 2026-05-04 09:27 | -37.67001 | 144.84505 | 391 ft | 2 kts | 336° |
| 2026-05-04 09:27 | -37.67013 | 144.84519 | 391 ft | 2 kts | 285° |
| 2026-05-04 09:28 | -37.67015 | 144.84530 | 390 ft | 1 kts | 269° |
| 2026-05-04 09:28 | -37.67015 | 144.84531 | 390 ft | 0 kts | 269° |
| 2026-05-04 09:31 | -37.67015 | 144.84529 | 391 ft | 1 kts | 270° |
| 2026-05-04 09:31 | -37.67015 | 144.84518 | 391 ft | 2 kts | 270° |
| 2026-05-04 09:31 | -37.67015 | 144.84491 | 392 ft | 4 kts | 269° |
| 2026-05-04 09:31 | -37.67015 | 144.84490 | 392 ft | 0 kts | 269° |
| 2026-05-04 09:32 | -37.67016 | 144.84488 | 392 ft | 0 kts | 263° |
| 2026-05-04 09:32 | -37.67019 | 144.84478 | 390 ft | 3 kts | 252° |
| 2026-05-04 09:34 | -37.67430 | 144.84098 | 379 ft | 18 kts | 171° |
| 2026-05-04 09:34 | -37.67548 | 144.84122 | 375 ft | 19 kts | 171° |
| 2026-05-04 09:34 | -37.67679 | 144.84149 | 373 ft | 19 kts | 171° |
| 2026-05-04 09:34 | -37.67746 | 144.84161 | 371 ft | 1 kts | 172° |
| 2026-05-04 09:35 | -37.67762 | 144.84164 | 370 ft | 4 kts | 172° |
| 2026-05-04 09:35 | -37.67765 | 144.84164 | 370 ft | 0 kts | 172° |
| 2026-05-04 09:43 | -37.67765 | 144.84165 | 369 ft | 1 kts | 172° |
| 2026-05-04 09:43 | -37.67778 | 144.84167 | 373 ft | 2 kts | 172° |
| 2026-05-04 09:44 | -37.67793 | 144.84170 | 369 ft | 0 kts | 172° |
| 2026-05-04 09:44 | -37.67795 | 144.84170 | 369 ft | 1 kts | 172° |
| 2026-05-04 09:44 | -37.67816 | 144.84174 | 371 ft | 5 kts | 170° |
| 2026-05-04 09:46 | -37.67843 | 144.83963 | 365 ft | 0 kts | 350° |
| 2026-05-04 09:46 | -37.67667 | 144.83929 | 369 ft | 57 kts | 352° |
| 2026-05-04 09:47 | -37.67083 | 144.83820 | 389 ft | 111 kts | 352° |
| 2026-05-04 09:47 | -37.66152 | 144.83648 | 421 ft | 158 kts | 352° |
| 2026-05-04 09:49 | -37.63476 | 144.79504 | 2550 ft | 173 kts | 262° |
| 2026-05-04 09:49 | -37.63327 | 144.78038 | 2621 ft | 174 kts | 300° |
| 2026-05-04 09:49 | -37.62389 | 144.77020 | 2669 ft | 190 kts | 334° |
| 2026-05-04 09:51 | -37.53033 | 144.76360 | 3460 ft | 247 kts | 352° |
| 2026-05-04 09:51 | -37.51315 | 144.76276 | 3736 ft | 248 kts | 351° |
| 2026-05-04 09:51 | -37.49680 | 144.75756 | 3934 ft | 240 kts | 326° |
| 2026-05-04 09:51 | -37.48438 | 144.74389 | 4306 ft | 237 kts | 309° |
| 2026-05-04 09:52 | -37.47438 | 144.72732 | 4872 ft | 238 kts | 299° |
| 2026-05-04 09:52 | -37.46722 | 144.70851 | 5413 ft | 239 kts | 291° |
| 2026-05-04 09:52 | -37.46168 | 144.68865 | 5993 ft | 241 kts | 287° |
| 2026-05-04 09:52 | -37.45723 | 144.66817 | 6524 ft | 244 kts | 284° |
| 2026-05-04 09:53 | -37.45339 | 144.64730 | 7035 ft | 246 kts | 282° |
| 2026-05-04 09:53 | -37.44978 | 144.62608 | 7556 ft | 249 kts | 282° |
| 2026-05-04 09:53 | -37.44621 | 144.60475 | 8100 ft | 251 kts | 282° |
| 2026-05-04 09:53 | -37.44257 | 144.58336 | 8639 ft | 254 kts | 282° |
| 2026-05-04 09:54 | -37.43877 | 144.56157 | 9194 ft | 257 kts | 282° |
| 2026-05-04 09:54 | -37.43484 | 144.53951 | 9752 ft | 259 kts | 282° |
| 2026-05-04 09:54 | -37.43081 | 144.51725 | 10229 ft | 264 kts | 282° |
| 2026-05-04 09:54 | -37.42660 | 144.49413 | 10469 ft | 277 kts | 282° |
| 2026-05-04 09:55 | -37.42220 | 144.46997 | 10716 ft | 290 kts | 282° |
| 2026-05-04 09:55 | -37.41757 | 144.44466 | 10962 ft | 303 kts | 282° |
| 2026-05-04 09:55 | -37.41274 | 144.41828 | 11186 ft | 316 kts | 282° |
| 2026-05-04 09:55 | -37.40770 | 144.39083 | 11405 ft | 327 kts | 282° |
| 2026-05-04 09:56 | -37.40248 | 144.36240 | 11624 ft | 339 kts | 282° |
| 2026-05-04 09:56 | -37.39715 | 144.33340 | 11848 ft | 349 kts | 282° |
| 2026-05-04 09:56 | -37.39160 | 144.30324 | 12104 ft | 358 kts | 282° |
| 2026-05-04 09:56 | -37.38594 | 144.27259 | 12502 ft | 362 kts | 282° |
| 2026-05-04 09:57 | -37.38021 | 144.24154 | 12940 ft | 366 kts | 282° |
| 2026-05-04 09:57 | -37.37443 | 144.21022 | 13375 ft | 369 kts | 282° |
| 2026-05-04 09:57 | -37.36859 | 144.17870 | 13819 ft | 371 kts | 282° |
| 2026-05-04 09:57 | -37.36269 | 144.14692 | 14216 ft | 374 kts | 282° |
| 2026-05-04 09:58 | -37.35675 | 144.11499 | 14613 ft | 376 kts | 282° |
| 2026-05-04 09:58 | -37.35077 | 144.08285 | 14999 ft | 379 kts | 282° |
| 2026-05-04 09:58 | -37.34475 | 144.05053 | 15399 ft | 382 kts | 282° |
| 2026-05-04 10:00 | -37.30127 | 143.81870 | 18162 ft | 399 kts | 282° |
| 2026-05-04 10:00 | -37.29485 | 143.78468 | 18511 ft | 401 kts | 282° |
| 2026-05-04 10:02 | -37.24876 | 143.54222 | 20988 ft | 415 kts | 282° |
| 2026-05-04 10:04 | -37.20043 | 143.29158 | 23526 ft | 431 kts | 283° |
| 2026-05-04 10:04 | -37.19131 | 143.25560 | 23824 ft | 434 kts | 288° |
| 2026-05-04 10:04 | -37.18107 | 143.21982 | 24119 ft | 436 kts | 288° |
| 2026-05-04 10:04 | -37.17039 | 143.18402 | 24420 ft | 439 kts | 289° |
| 2026-05-04 10:05 | -37.15946 | 143.14825 | 24706 ft | 441 kts | 289° |
| 2026-05-04 10:05 | -37.14835 | 143.11224 | 25004 ft | 443 kts | 289° |
| 2026-05-04 10:05 | -37.13720 | 143.07618 | 25284 ft | 445 kts | 288° |
| 2026-05-04 10:05 | -37.12602 | 143.03994 | 25556 ft | 447 kts | 288° |
| 2026-05-04 10:06 | -37.11477 | 143.00343 | 25844 ft | 450 kts | 288° |
| 2026-05-04 10:06 | -37.10350 | 142.96679 | 26132 ft | 452 kts | 288° |
| 2026-05-04 10:06 | -37.09219 | 142.93000 | 26395 ft | 454 kts | 288° |
| 2026-05-04 10:08 | -37.02309 | 142.70615 | 28001 ft | 467 kts | 287° |
| 2026-05-04 10:08 | -37.01129 | 142.66814 | 28245 ft | 469 kts | 287° |
| 2026-05-04 10:08 | -36.99945 | 142.63003 | 28498 ft | 471 kts | 287° |
| 2026-05-04 10:08 | -36.98752 | 142.59168 | 28707 ft | 473 kts | 287° |
| 2026-05-04 10:09 | -36.97555 | 142.55323 | 28957 ft | 474 kts | 286° |
| 2026-05-04 10:09 | -36.96358 | 142.51491 | 29305 ft | 473 kts | 286° |
| 2026-05-04 10:09 | -36.95159 | 142.47659 | 29642 ft | 473 kts | 286° |
| 2026-05-04 10:09 | -36.93962 | 142.43833 | 29958 ft | 473 kts | 286° |
| 2026-05-04 10:10 | -36.92763 | 142.40004 | 30239 ft | 472 kts | 286° |
| 2026-05-04 10:10 | -36.91564 | 142.36187 | 30543 ft | 470 kts | 286° |
| 2026-05-04 10:10 | -36.90369 | 142.32385 | 30875 ft | 468 kts | 286° |
| 2026-05-04 10:10 | -36.89179 | 142.28602 | 31199 ft | 466 kts | 287° |
| 2026-05-04 10:11 | -36.88007 | 142.24880 | 31498 ft | 465 kts | 287° |
| 2026-05-04 10:11 | -36.86824 | 142.21129 | 31783 ft | 463 kts | 287° |
| 2026-05-04 10:11 | -36.85645 | 142.17391 | 32062 ft | 462 kts | 287° |
| 2026-05-04 10:11 | -36.84466 | 142.13659 | 32343 ft | 461 kts | 287° |
| 2026-05-04 10:12 | -36.83293 | 142.09954 | 32600 ft | 459 kts | 288° |
| 2026-05-04 10:12 | -36.82118 | 142.06244 | 32863 ft | 458 kts | 288° |
| 2026-05-04 10:12 | -36.80947 | 142.02552 | 33112 ft | 457 kts | 288° |
| 2026-05-04 10:12 | -36.79777 | 141.98871 | 33375 ft | 456 kts | 288° |
| 2026-05-04 10:13 | -36.78608 | 141.95194 | 33618 ft | 455 kts | 288° |
| 2026-05-04 10:13 | -36.77443 | 141.91537 | 33856 ft | 453 kts | 288° |
| 2026-05-04 10:13 | -36.76278 | 141.87884 | 34012 ft | 455 kts | 289° |
| 2026-05-04 10:13 | -36.75103 | 141.84202 | 34038 ft | 459 kts | 289° |
| 2026-05-04 10:14 | -36.72750 | 141.76840 | 34036 ft | 460 kts | 289° |
| 2026-05-04 10:16 | -36.63634 | 141.48529 | 34045 ft | 460 kts | 289° |
| 2026-05-04 10:16 | -36.61243 | 141.41148 | 34050 ft | 460 kts | 289° |
| 2026-05-04 10:17 | -36.58844 | 141.33760 | 34050 ft | 460 kts | 289° |
| 2026-05-04 10:19 | -36.49206 | 141.04263 | 34061 ft | 460 kts | 289° |
| 2026-05-04 10:19 | -36.46786 | 140.96903 | 34064 ft | 460 kts | 289° |
| 2026-05-04 10:20 | -36.44362 | 140.89550 | 34068 ft | 460 kts | 290° |
| 2026-05-04 10:20 | -36.41949 | 140.82250 | 34068 ft | 460 kts | 290° |
| 2026-05-04 10:21 | -36.39353 | 140.74992 | 34070 ft | 462 kts | 296° |
| 2026-05-04 10:21 | -36.35671 | 140.68395 | 34072 ft | 466 kts | 304° |
| 2026-05-04 10:22 | -36.29652 | 140.58900 | 34074 ft | 466 kts | 305° |
| 2026-05-04 10:23 | -36.25643 | 140.52641 | 34075 ft | 466 kts | 304° |
| 2026-05-04 10:25 | -36.09608 | 140.27503 | 34085 ft | 464 kts | 305° |
| 2026-05-04 10:25 | -36.05594 | 140.21238 | 34084 ft | 464 kts | 305° |
| 2026-05-04 10:26 | -36.01584 | 140.14987 | 34086 ft | 463 kts | 305° |
| 2026-05-04 10:26 | -35.97580 | 140.08757 | 34091 ft | 463 kts | 305° |
| 2026-05-04 10:27 | -35.93573 | 140.02535 | 34090 ft | 462 kts | 305° |
| 2026-05-04 10:27 | -35.89567 | 139.96326 | 34095 ft | 462 kts | 305° |
| 2026-05-04 10:28 | -35.85560 | 139.90127 | 34098 ft | 461 kts | 305° |
| 2026-05-04 10:28 | -35.81559 | 139.83948 | 34097 ft | 461 kts | 305° |
| 2026-05-04 10:29 | -35.77556 | 139.77777 | 34100 ft | 461 kts | 305° |
| 2026-05-04 10:29 | -35.73579 | 139.71656 | 34103 ft | 460 kts | 305° |
| 2026-05-04 10:30 | -35.69573 | 139.65503 | 34107 ft | 460 kts | 305° |
| 2026-05-04 10:30 | -35.65577 | 139.59375 | 34107 ft | 459 kts | 305° |
| 2026-05-04 10:31 | -35.61576 | 139.53250 | 34110 ft | 459 kts | 305° |
| 2026-05-04 10:32 | -35.47575 | 139.31905 | 34116 ft | 458 kts | 306° |
| 2026-05-04 10:33 | -35.43598 | 139.25867 | 34131 ft | 457 kts | 306° |
| 2026-05-04 10:33 | -35.39590 | 139.19792 | 34117 ft | 457 kts | 306° |
| 2026-05-04 10:34 | -35.35585 | 139.13732 | 34128 ft | 457 kts | 306° |
| 2026-05-04 10:34 | -35.31573 | 139.07674 | 33918 ft | 458 kts | 304° |
| 2026-05-04 10:35 | -35.29561 | 139.04646 | 34104 ft | 459 kts | 304° |
| 2026-05-04 10:35 | -35.27540 | 139.01599 | 34134 ft | 463 kts | 304° |
| 2026-05-04 10:35 | -35.23439 | 138.95413 | 34145 ft | 473 kts | 304° |
| 2026-05-04 10:36 | -35.19276 | 138.89150 | 34137 ft | 481 kts | 305° |
| 2026-05-04 10:36 | -35.15050 | 138.82819 | 34141 ft | 480 kts | 305° |
| 2026-05-04 10:37 | -35.10828 | 138.76505 | 34134 ft | 480 kts | 305° |
| 2026-05-04 10:37 | -35.06606 | 138.70198 | 34130 ft | 480 kts | 305° |
| 2026-05-04 10:39 | -34.92143 | 138.47842 | 34120 ft | 477 kts | 300° |
| 2026-05-04 10:40 | -34.88451 | 138.41171 | 34164 ft | 477 kts | 300° |
| 2026-05-04 10:40 | -34.84756 | 138.34443 | 34156 ft | 478 kts | 300° |
| 2026-05-04 10:41 | -34.81053 | 138.27726 | 34153 ft | 478 kts | 300° |
| 2026-05-04 10:41 | -34.77332 | 138.21008 | 34153 ft | 478 kts | 300° |
| 2026-05-04 10:42 | -34.73614 | 138.14309 | 34153 ft | 479 kts | 300° |
| 2026-05-04 10:42 | -34.69878 | 138.07593 | 34155 ft | 479 kts | 301° |
| 2026-05-04 10:43 | -34.66142 | 138.00889 | 34156 ft | 479 kts | 301° |
| 2026-05-04 10:45 | -34.51156 | 137.74128 | 34171 ft | 481 kts | 301° |
| 2026-05-04 10:45 | -34.47388 | 137.67423 | 34167 ft | 481 kts | 301° |